Time;durP1;ratioP1;P1;durP2;ratioP2;P2;SDS_P1;SDS_P2;PMS_P1;PMS_P2;Temp;Humidity;BMP_temperature;BMP_pressure;BME280_temperature;BME280_humidity;BME280_pressure;Samples;Min_cycle;Max_cycle;Signal;HPM_P1;HPM_P2
2021/08/21 00:01:57;;;;;;;10.63;4.90;;;;;;;15.44;73.35;97864.77;1735039;83;20983;-82
2021/08/21 00:04:23;;;;;;;8.53;4.83;;;;;;;15.39;73.35;97857.47;1727136;83;21008;-82
2021/08/21 00:06:50;;;;;;;8.08;5.05;;;;;;;15.37;73.09;97863.83;1713166;83;20963;-82
2021/08/21 00:09:16;;;;;;;8.15;5.17;;;;;;;15.33;73.38;97858.25;1734826;83;21495;-82
2021/08/21 00:11:43;;;;;;;6.87;4.72;;;;;;;15.29;74.13;97858.39;1701195;83;21020;-82
2021/08/21 00:14:09;;;;;;;6.53;4.53;;;;;;;15.29;73.16;97862.89;1700959;84;21017;-82
2021/08/21 00:16:36;;;;;;;8.03;5.03;;;;;;;15.22;74.51;97861.45;1704307;83;20967;-82
2021/08/21 00:19:03;;;;;;;6.83;5.20;;;;;;;15.21;73.27;97860.61;1723082;83;21026;-82
2021/08/21 00:21:30;;;;;;;8.03;5.05;;;;;;;15.18;73.78;97856.30;1717078;83;20977;-83
2021/08/21 00:23:56;;;;;;;8.38;4.75;;;;;;;15.20;72.85;97852.19;1675871;85;21453;-83
2021/08/21 00:26:22;;;;;;;8.23;5.35;;;;;;;15.21;73.15;97856.61;1650929;86;21001;-83
2021/08/21 00:28:49;;;;;;;5.80;4.67;;;;;;;15.20;72.78;97847.34;1699890;83;21005;-82
2021/08/21 00:31:15;;;;;;;10.08;5.37;;;;;;;15.20;73.88;97855.34;1668545;85;21024;-82
2021/08/21 00:33:41;;;;;;;7.50;4.72;;;;;;;15.22;73.28;97858.33;1721182;83;20983;-82
2021/08/21 00:36:08;;;;;;;8.25;5.40;;;;;;;15.18;74.28;97848.74;1694922;83;21001;-82
2021/08/21 00:38:34;;;;;;;7.47;5.05;;;;;;;15.15;74.26;97847.09;1677050;86;20954;-82
2021/08/21 00:41:01;;;;;;;6.33;4.70;;;;;;;15.12;73.70;97852.58;1661971;85;20993;-83
2021/08/21 00:43:29;;;;;;;7.53;4.78;;;;;;;15.01;75.04;97846.47;1654737;86;22048;-82
2021/08/21 00:45:55;;;;;;;7.72;5.05;;;;;;;15.06;74.34;97849.38;1709432;83;21097;-82
2021/08/21 00:48:22;;;;;;;8.15;5.20;;;;;;;15.06;74.85;97844.05;1694051;83;21552;-82
2021/08/21 00:50:48;;;;;;;7.53;4.83;;;;;;;15.05;74.27;97845.84;1693699;83;21001;-82
2021/08/21 00:53:15;;;;;;;6.85;4.80;;;;;;;15.07;74.22;97842.61;1694425;83;21028;-83
2021/08/21 00:55:42;;;;;;;6.92;4.53;;;;;;;15.07;73.94;97842.61;1692535;84;21356;-83
2021/08/21 00:58:08;;;;;;;6.10;4.47;;;;;;;15.09;74.27;97835.41;1695298;83;20945;-82
2021/08/21 01:00:35;;;;;;;7.55;4.67;;;;;;;15.14;74.20;97837.37;1693554;83;20981;-82
2021/08/21 01:03:01;;;;;;;8.50;4.33;;;;;;;15.15;73.68;97840.42;1715404;83;20982;-82
2021/08/21 01:05:28;;;;;;;7.12;4.28;;;;;;;15.18;73.87;97839.40;1671500;84;21048;-82
2021/08/21 01:07:55;;;;;;;5.28;4.05;;;;;;;15.20;73.87;97838.84;1649972;87;20980;-82
2021/08/21 01:10:23;;;;;;;6.03;4.35;;;;;;;15.19;73.70;97834.45;1692627;83;20959;-83
2021/08/21 01:12:54;;;;;;;7.65;4.50;;;;;;;15.15;73.52;97830.20;1706388;83;21450;-82
2021/08/21 01:15:26;;;;;;;8.80;5.10;;;;;;;15.12;74.16;97832.56;1662890;86;21008;-81
2021/08/21 01:17:56;;;;;;;5.42;4.03;;;;;;;15.11;73.88;97829.50;1686227;83;21429;-82
2021/08/21 01:20:29;;;;;;;6.95;4.55;;;;;;;15.12;73.20;97828.55;1721070;83;21395;-82
2021/08/21 01:22:59;;;;;;;8.63;4.92;;;;;;;15.12;73.30;97826.38;1700241;83;20980;-82
2021/08/21 01:25:42;;;;;;;6.80;4.58;;;;;;;15.11;73.04;97829.99;1684727;83;21030;-83
2021/08/21 01:28:11;;;;;;;6.17;3.75;;;;;;;15.08;73.37;97825.67;1730694;82;21371;-82
2021/08/21 01:30:51;;;;;;;9.55;4.78;;;;;;;15.06;72.58;97825.36;1697674;84;21021;-82
2021/08/21 01:33:22;;;;;;;7.62;4.80;;;;;;;15.02;72.75;97821.50;1739513;82;20973;-82
2021/08/21 01:35:54;;;;;;;6.65;5.00;;;;;;;14.99;72.80;97818.13;1711977;83;21056;-82
2021/08/21 01:38:21;;;;;;;6.90;4.35;;;;;;;14.96;72.98;97824.48;1701497;84;20981;-82
2021/08/21 01:40:54;;;;;;;6.87;4.90;;;;;;;14.91;73.77;97821.19;1699677;84;21008;-83
2021/08/21 01:43:22;;;;;;;7.35;4.80;;;;;;;14.86;73.26;97824.07;1671780;84;20988;-83
2021/08/21 01:45:49;;;;;;;7.53;4.50;;;;;;;14.83;73.56;97823.36;1701598;83;20991;-83
2021/08/21 01:48:18;;;;;;;5.83;4.47;;;;;;;14.80;73.04;97823.51;1735107;83;21420;-84
2021/08/21 01:50:46;;;;;;;6.92;4.62;;;;;;;14.74;73.94;97819.33;1737206;82;20977;-83
2021/08/21 01:53:18;;;;;;;7.62;5.22;;;;;;;14.70;74.35;97823.08;1701359;84;20941;-82
2021/08/21 01:55:48;;;;;;;8.18;4.17;;;;;;;14.65;74.62;97818.83;1726046;83;21029;-83
2021/08/21 01:58:20;;;;;;;7.58;4.65;;;;;;;14.64;73.99;97816.23;1696530;84;21000;-83
2021/08/21 02:00:49;;;;;;;7.20;4.62;;;;;;;14.68;73.96;97812.94;1726408;82;21418;-83
2021/08/21 02:03:18;;;;;;;8.18;5.12;;;;;;;14.67;73.69;97810.77;1675753;83;20985;-83
2021/08/21 02:05:46;;;;;;;7.25;5.15;;;;;;;14.62;73.94;97816.80;1675094;84;20976;-83
2021/08/21 02:08:12;;;;;;;7.47;4.67;;;;;;;14.60;73.99;97819.53;1703461;84;21005;-83
2021/08/21 02:10:40;;;;;;;5.95;4.10;;;;;;;14.57;73.65;97823.67;1710394;83;21018;-83
2021/08/21 02:13:08;;;;;;;6.80;4.90;;;;;;;14.53;73.62;97819.42;1720875;82;21011;-83
2021/08/21 02:15:35;;;;;;;6.42;4.65;;;;;;;14.50;73.89;97823.09;1691928;83;21032;-83
2021/08/21 02:18:02;;;;;;;6.25;4.50;;;;;;;14.46;74.36;97823.33;1748217;82;21008;-83
2021/08/21 02:20:37;;;;;;;6.00;4.60;;;;;;;14.40;74.61;97823.15;1754280;82;20992;-83
2021/08/21 02:23:05;;;;;;;6.50;4.62;;;;;;;14.37;74.88;97831.31;1739912;82;20981;-83
2021/08/21 02:25:33;;;;;;;7.70;4.90;;;;;;;14.32;74.87;97827.52;1719695;83;20997;-83
2021/08/21 02:28:07;;;;;;;6.20;4.78;;;;;;;14.27;76.19;97826.03;1737624;82;21008;-83
2021/08/21 02:30:29;;;;;;;6.75;4.60;;;;;;;14.24;76.17;97831.00;1713818;83;21438;-83
2021/08/21 02:32:55;;;;;;;6.75;4.53;;;;;;;14.23;75.25;97828.83;1749431;80;21315;-83
2021/08/21 02:35:22;;;;;;;7.45;4.47;;;;;;;14.26;75.20;97835.81;1721299;82;21502;-83
2021/08/21 02:37:48;;;;;;;6.78;4.75;;;;;;;14.27;76.04;97830.03;1726539;82;20992;-83
2021/08/21 02:40:16;;;;;;;7.37;4.95;;;;;;;14.24;75.84;97825.22;1728570;82;20976;-83
2021/08/21 02:42:42;;;;;;;6.05;4.28;;;;;;;14.25;75.82;97826.09;1715203;83;21066;-83
2021/08/21 02:45:10;;;;;;;8.50;4.10;;;;;;;14.22;76.19;97825.77;1704456;81;20995;-83
2021/08/21 02:47:37;;;;;;;6.80;4.67;;;;;;;14.25;75.76;97822.09;1727189;82;21425;-83
2021/08/21 02:50:04;;;;;;;6.08;4.67;;;;;;;14.28;75.90;97822.42;1700311;84;21032;-82
2021/08/21 02:52:31;;;;;;;6.60;4.30;;;;;;;14.28;75.51;97821.93;1745327;82;20921;-82
2021/08/21 02:55:01;;;;;;;6.80;4.75;;;;;;;14.29;75.59;97816.14;1725210;83;20985;-82
2021/08/21 02:57:28;;;;;;;7.00;4.20;;;;;;;14.33;75.67;97817.73;1703648;83;21055;-82
2021/08/21 02:59:55;;;;;;;8.03;4.55;;;;;;;14.34;75.48;97823.00;1644807;87;21037;-82
2021/08/21 03:02:23;;;;;;;5.65;4.00;;;;;;;14.32;75.50;97823.52;1745180;82;21043;-82
2021/08/21 03:04:52;;;;;;;7.28;4.40;;;;;;;14.30;75.50;97824.08;1686064;83;21387;-82
2021/08/21 03:07:20;;;;;;;6.87;4.22;;;;;;;14.29;74.94;97821.02;1726271;83;20973;-83
2021/08/21 03:09:49;;;;;;;5.80;4.25;;;;;;;14.28;74.96;97824.59;1706603;83;21426;-82
2021/08/21 03:12:15;;;;;;;6.62;4.25;;;;;;;14.29;74.96;97832.14;1720575;83;21433;-83
2021/08/21 03:14:56;;;;;;;7.15;4.60;;;;;;;14.22;75.18;97828.89;1700313;83;21392;-82
2021/08/21 03:17:23;;;;;;;6.58;4.78;;;;;;;14.15;75.56;97832.31;1744230;82;21454;-82
2021/08/21 03:19:51;;;;;;;8.30;4.35;;;;;;;14.09;75.46;97834.81;1736367;83;21374;-82
2021/08/21 03:22:18;;;;;;;6.37;4.35;;;;;;;14.05;75.13;97836.34;1757252;82;21374;-82
2021/08/21 03:24:44;;;;;;;8.58;5.00;;;;;;;14.03;74.82;97833.75;1693407;84;20953;-82
2021/08/21 03:27:11;;;;;;;10.45;4.92;;;;;;;13.99;75.45;97830.82;1684142;83;20975;-82
2021/08/21 03:29:40;;;;;;;7.47;5.25;;;;;;;13.95;75.04;97833.26;1751771;82;20992;-83
2021/08/21 03:32:10;;;;;;;8.70;5.58;;;;;;;13.89;75.24;97835.73;1700336;84;21422;-82
2021/08/21 03:34:38;;;;;;;8.23;5.58;;;;;;;13.86;75.14;97842.52;1726387;82;20993;-82
2021/08/21 03:37:05;;;;;;;10.00;5.08;;;;;;;13.85;75.33;97843.45;1703359;83;21122;-82
2021/08/21 03:39:33;;;;;;;7.72;5.08;;;;;;;13.80;75.41;97846.34;1718215;83;20997;-83
2021/08/21 03:42:00;;;;;;;7.20;4.90;;;;;;;13.75;77.25;97844.36;1725798;83;21433;-83
2021/08/21 03:44:26;;;;;;;8.50;4.97;;;;;;;13.73;76.04;97851.08;1738392;82;21032;-82
2021/08/21 03:46:53;;;;;;;8.90;5.70;;;;;;;13.68;76.26;97851.75;1737621;82;20949;-83
2021/08/21 03:49:20;;;;;;;8.88;5.17;;;;;;;13.63;78.04;97853.75;1736532;83;20999;-82
2021/08/21 03:51:46;;;;;;;9.33;5.62;;;;;;;13.58;77.16;97856.60;1725047;83;20981;-83
2021/08/21 03:54:13;;;;;;;8.25;5.35;;;;;;;13.58;77.44;97855.75;1701460;82;20969;-83
2021/08/21 03:56:40;;;;;;;8.00;5.12;;;;;;;13.57;77.13;97863.32;1728046;82;20968;-82
2021/08/21 03:59:07;;;;;;;8.68;6.05;;;;;;;13.53;78.61;97862.59;1726577;83;21004;-83
2021/08/21 04:01:35;;;;;;;7.75;5.03;;;;;;;13.53;77.83;97863.92;1730169;82;21007;-82
2021/08/21 04:04:06;;;;;;;7.17;4.90;;;;;;;13.53;78.40;97865.75;1744893;82;21402;-84
2021/08/21 04:06:38;;;;;;;7.45;4.47;;;;;;;13.54;78.12;97868.80;1735618;82;21486;-82
2021/08/21 04:09:07;;;;;;;8.18;4.95;;;;;;;13.58;77.35;97870.41;1719636;83;21008;-83
2021/08/21 04:11:35;;;;;;;5.95;4.40;;;;;;;13.61;77.72;97872.91;1728765;82;20976;-83
2021/08/21 04:14:06;;;;;;;6.72;4.80;;;;;;;13.69;76.91;97869.91;1719804;82;21001;-83
2021/08/21 04:16:33;;;;;;;7.30;4.15;;;;;;;13.72;77.17;97870.66;1724167;82;21020;-83
2021/08/21 04:19:00;;;;;;;49.45;29.60;;;;;;;13.76;77.63;97863.39;1697364;83;21075;-82
2021/08/21 04:21:29;;;;;;;9.38;5.10;;;;;;;13.85;76.87;97864.77;1719828;83;21004;-83
2021/08/21 04:23:56;;;;;;;6.53;4.20;;;;;;;13.95;77.56;97872.73;1707910;84;21425;-84
2021/08/21 04:26:22;;;;;;;5.72;4.00;;;;;;;13.93;76.87;97878.61;1728098;82;21438;-82
2021/08/21 04:28:49;;;;;;;5.45;4.03;;;;;;;13.96;76.64;97884.27;1725468;82;21401;-84
2021/08/21 04:31:15;;;;;;;6.05;4.30;;;;;;;14.01;76.57;97880.92;1725755;82;21016;-83
2021/08/21 04:33:42;;;;;;;8.33;4.33;;;;;;;14.05;76.46;97881.19;1725875;82;21108;-84
2021/08/21 04:36:09;;;;;;;7.75;4.70;;;;;;;14.10;76.34;97895.17;1725106;83;21398;-83
2021/08/21 04:38:37;;;;;;;4.83;4.03;;;;;;;14.13;76.12;97887.02;1724149;83;21000;-83
2021/08/21 04:41:05;;;;;;;6.00;4.72;;;;;;;14.20;75.92;97892.92;1724427;82;21056;-83
2021/08/21 04:43:32;;;;;;;9.38;4.80;;;;;;;14.29;75.73;97892.12;1726325;82;21032;-83
2021/08/21 04:45:59;;;;;;;6.28;4.75;;;;;;;14.34;75.27;97892.31;1724891;82;21119;-83
2021/08/21 04:48:26;;;;;;;7.08;4.67;;;;;;;14.34;75.63;97894.09;1725561;83;21003;-84
2021/08/21 04:50:53;;;;;;;7.92;4.90;;;;;;;14.39;75.33;97895.63;1725688;83;20981;-84
2021/08/21 04:53:20;;;;;;;8.13;4.78;;;;;;;14.45;75.28;97900.27;1727367;82;21039;-84
2021/08/21 04:55:48;;;;;;;10.45;5.40;;;;;;;14.49;74.93;97891.19;1724070;83;21001;-83
2021/08/21 04:58:15;;;;;;;6.87;5.30;;;;;;;14.51;74.82;97897.30;1727819;82;21063;-84
2021/08/21 05:00:42;;;;;;;10.68;5.78;;;;;;;14.51;74.51;97894.19;1724621;82;21402;-84
2021/08/21 05:03:10;;;;;;;7.42;5.33;;;;;;;14.54;74.59;97894.50;1728444;82;20996;-84
2021/08/21 05:05:38;;;;;;;8.55;5.20;;;;;;;14.54;74.35;97899.84;1750914;82;20992;-84
2021/08/21 05:08:05;;;;;;;6.53;4.15;;;;;;;14.56;74.42;97895.28;1740268;82;20990;-84
2021/08/21 05:10:32;;;;;;;10.00;5.28;;;;;;;14.58;74.49;97895.22;1727469;82;20965;-84
2021/08/21 05:12:59;;;;;;;6.95;5.12;;;;;;;14.59;74.35;97893.81;1714284;83;21021;-84
2021/08/21 05:15:26;;;;;;;7.62;4.90;;;;;;;14.62;74.33;97896.80;1721013;83;21004;-84
2021/08/21 05:17:57;;;;;;;10.30;5.45;;;;;;;14.66;74.13;97899.72;1672672;84;21033;-83
2021/08/21 05:20:40;;;;;;;8.60;4.80;;;;;;;14.72;74.26;97896.75;1695667;85;21021;-84
2021/08/21 05:23:14;;;;;;;10.00;5.10;;;;;;;14.82;74.21;97891.01;1696633;83;20997;-85
2021/08/21 05:25:45;;;;;;;6.58;4.75;;;;;;;14.91;74.05;97901.23;1696424;85;21029;-84
2021/08/21 05:28:16;;;;;;;8.68;4.70;;;;;;;14.98;74.04;97901.77;1642427;86;21064;-84
2021/08/21 05:30:44;;;;;;;9.78;4.72;;;;;;;15.05;73.74;97899.21;1696249;85;21041;-84
2021/08/21 05:33:17;;;;;;;8.23;4.97;;;;;;;15.13;73.49;97905.05;1697323;83;21048;-84
2021/08/21 05:35:44;;;;;;;9.75;4.60;;;;;;;15.22;73.03;97900.16;1643666;86;21007;-84
2021/08/21 05:38:11;;;;;;;10.70;4.50;;;;;;;15.32;73.07;97905.44;1651308;86;21001;-84
2021/08/21 05:40:39;;;;;;;7.47;5.40;;;;;;;15.45;72.97;97905.70;1703430;83;20966;-84
2021/08/21 05:43:06;;;;;;;7.10;4.47;;;;;;;15.56;72.84;97912.68;1664779;85;21041;-84
2021/08/21 05:45:32;;;;;;;5.60;4.58;;;;;;;15.68;72.69;97914.32;1701571;83;20974;-84
2021/08/21 05:47:59;;;;;;;9.18;4.95;;;;;;;15.75;72.72;97917.08;1667343;85;21023;-84
2021/08/21 05:50:25;;;;;;;6.28;4.08;;;;;;;15.84;72.50;97908.59;1662320;86;21021;-84
2021/08/21 05:52:52;;;;;;;5.58;4.50;;;;;;;15.98;72.30;97916.84;1662210;85;20997;-84
2021/08/21 05:55:20;;;;;;;5.85;4.37;;;;;;;16.08;71.60;97919.42;1662379;86;21432;-84
2021/08/21 05:57:48;;;;;;;8.18;4.20;;;;;;;16.19;71.59;97921.52;1670097;85;21024;-84
2021/08/21 06:00:15;;;;;;;8.75;4.60;;;;;;;16.28;71.23;97924.16;1711057;83;20993;-84
2021/08/21 06:02:43;;;;;;;6.00;4.15;;;;;;;16.30;70.73;97925.81;1693881;85;21037;-82
2021/08/21 06:05:11;;;;;;;6.28;4.10;;;;;;;16.33;70.37;97927.45;1694412;83;21048;-83
2021/08/21 06:07:40;;;;;;;7.22;4.72;;;;;;;16.36;70.21;97921.45;1694642;83;21087;-83
2021/08/21 06:10:09;;;;;;;32.13;22.48;;;;;;;16.43;70.33;97926.00;1693806;85;21032;-83
2021/08/21 06:12:37;;;;;;;14.58;9.80;;;;;;;16.55;70.15;97930.28;1693956;85;21021;-82
2021/08/21 06:15:04;;;;;;;8.08;5.25;;;;;;;16.66;70.01;97921.66;1692808;85;21029;-83
2021/08/21 06:17:31;;;;;;;7.53;4.10;;;;;;;16.76;69.92;97923.75;1701308;82;21009;-81
2021/08/21 06:19:58;;;;;;;5.72;4.10;;;;;;;16.87;69.09;97915.09;1719470;82;21048;-83
2021/08/21 06:22:25;;;;;;;6.55;4.72;;;;;;;16.96;68.78;97912.38;1719783;83;20997;-83
2021/08/21 06:24:52;;;;;;;8.58;4.10;;;;;;;17.04;68.30;97908.42;1719684;82;21572;-83
2021/08/21 06:27:19;;;;;;;8.30;4.60;;;;;;;17.12;68.24;97920.44;1723256;82;21071;-82
2021/08/21 06:29:45;;;;;;;5.70;4.40;;;;;;;17.24;68.29;97920.17;1721457;82;21391;-82
2021/08/21 06:32:12;;;;;;;4.87;3.70;;;;;;;17.41;67.98;97919.19;1721400;82;20957;-82
2021/08/21 06:34:38;;;;;;;9.85;4.40;;;;;;;17.59;68.05;97915.04;1729356;82;21032;-82
2021/08/21 06:37:05;;;;;;;6.37;3.98;;;;;;;17.80;67.69;97911.55;1748375;82;21446;-82
2021/08/21 06:39:33;;;;;;;5.42;4.10;;;;;;;17.98;67.41;97915.88;1721292;83;21009;-82
2021/08/21 06:42:02;;;;;;;8.45;4.40;;;;;;;18.15;66.74;97915.72;1727914;82;20961;-83
2021/08/21 06:44:29;;;;;;;7.17;4.35;;;;;;;18.31;66.12;97910.77;1740341;82;21048;-83
2021/08/21 06:46:56;;;;;;;7.28;4.28;;;;;;;18.42;65.93;97911.41;1728889;82;21059;-83
2021/08/21 06:49:23;;;;;;;5.58;4.28;;;;;;;18.47;65.07;97911.98;1718802;82;21016;-83
2021/08/21 06:51:49;;;;;;;6.50;4.35;;;;;;;18.50;63.66;97918.97;1718323;83;21123;-82
2021/08/21 06:54:16;;;;;;;8.23;4.65;;;;;;;18.53;64.34;97923.69;1720627;83;20981;-83
2021/08/21 06:56:42;;;;;;;9.05;4.45;;;;;;;18.54;62.45;97927.21;1720510;80;21407;-83
2021/08/21 06:59:09;;;;;;;10.78;4.78;;;;;;;18.55;62.91;97924.44;1725195;82;21063;-82
2021/08/21 07:01:38;;;;;;;7.72;4.42;;;;;;;18.61;63.75;97917.83;1725098;82;21430;-82
2021/08/21 07:04:04;;;;;;;6.78;4.70;;;;;;;18.69;63.61;97919.52;1719514;82;21024;-83
2021/08/21 07:06:31;;;;;;;8.88;4.55;;;;;;;18.77;63.64;97919.02;1721111;83;21419;-83
2021/08/21 07:08:58;;;;;;;6.55;4.40;;;;;;;18.86;63.64;97917.59;1734854;82;21016;-83
2021/08/21 07:11:24;;;;;;;7.30;4.58;;;;;;;18.94;63.52;97919.77;1726790;82;20961;-82
2021/08/21 07:13:50;;;;;;;7.60;4.45;;;;;;;19.03;62.63;97917.83;1742874;82;21016;-82
2021/08/21 07:16:17;;;;;;;6.55;3.92;;;;;;;19.13;62.59;97925.69;1719411;82;21499;-82
2021/08/21 07:18:43;;;;;;;8.65;4.83;;;;;;;19.24;62.28;97919.61;1716818;82;20998;-82
2021/08/21 07:21:10;;;;;;;7.42;4.22;;;;;;;19.33;61.65;97913.22;1714706;83;20989;-82
2021/08/21 07:23:38;;;;;;;9.48;4.10;;;;;;;19.46;61.75;97914.59;1709744;83;20962;-82
2021/08/21 07:26:05;;;;;;;7.33;4.28;;;;;;;19.58;60.66;97920.50;1709856;83;20949;-83
2021/08/21 07:28:32;;;;;;;8.28;4.22;;;;;;;19.69;61.33;97918.91;1714771;82;21491;-83
2021/08/21 07:31:00;;;;;;;5.72;4.20;;;;;;;19.79;61.08;97919.99;1708389;83;21422;-82
2021/08/21 07:33:28;;;;;;;7.42;3.95;;;;;;;19.89;60.78;97922.42;1688147;83;21016;-83
2021/08/21 07:35:55;;;;;;;7.33;4.25;;;;;;;20.00;60.93;97915.46;1709958;84;20985;-83
2021/08/21 07:38:22;;;;;;;6.97;4.00;;;;;;;20.11;60.55;97920.09;1717856;83;20965;-82
2021/08/21 07:40:50;;;;;;;7.03;4.17;;;;;;;20.20;59.88;97919.92;1709508;84;21079;-82
2021/08/21 07:43:17;;;;;;;7.10;3.95;;;;;;;20.30;58.74;97923.69;1709053;83;21013;-82
2021/08/21 07:45:46;;;;;;;5.42;3.72;;;;;;;20.41;59.08;97926.49;1684793;83;21395;-82
2021/08/21 07:48:15;;;;;;;5.80;3.70;;;;;;;20.52;57.28;97925.70;1717843;83;21000;-82
2021/08/21 07:50:43;;;;;;;7.83;3.65;;;;;;;20.63;55.86;97930.33;1709944;83;21049;-83
2021/08/21 07:53:10;;;;;;;5.58;3.33;;;;;;;20.75;57.36;97932.61;1725467;83;20974;-83
2021/08/21 07:55:37;;;;;;;4.53;3.00;;;;;;;20.88;56.12;97927.73;1727449;82;21062;-83
2021/08/21 07:58:04;;;;;;;5.78;3.35;;;;;;;20.98;50.69;97928.77;1699006;83;21016;-84
2021/08/21 08:00:32;;;;;;;3.95;2.85;;;;;;;21.04;54.79;97922.05;1697827;83;21004;-83
2021/08/21 08:02:59;;;;;;;4.50;2.90;;;;;;;21.11;54.76;97921.98;1723476;83;20979;-83
2021/08/21 08:05:27;;;;;;;4.40;2.70;;;;;;;21.20;51.91;97923.13;1709308;83;20985;-83
2021/08/21 08:07:53;;;;;;;5.83;2.52;;;;;;;21.28;48.19;97925.23;1712415;83;20981;-83
2021/08/21 08:10:20;;;;;;;3.98;2.67;;;;;;;21.35;48.69;97923.81;1708607;84;20954;-82
2021/08/21 08:12:47;;;;;;;3.87;2.85;;;;;;;21.40;47.98;97927.50;1709621;83;21024;-83
2021/08/21 08:15:13;;;;;;;4.85;2.25;;;;;;;21.49;49.39;97930.85;1710020;84;21440;-82
2021/08/21 08:17:40;;;;;;;3.83;3.00;;;;;;;21.54;48.38;97927.83;1715473;83;20962;-82
2021/08/21 08:20:09;;;;;;;11.05;8.28;;;;;;;21.61;48.54;97923.67;1712937;81;20990;-82
2021/08/21 08:22:36;;;;;;;5.25;2.90;;;;;;;21.69;49.69;97923.95;1721743;83;20975;-83
2021/08/21 08:25:03;;;;;;;3.90;2.17;;;;;;;21.74;48.60;97925.84;1717010;83;21017;-83
2021/08/21 08:27:30;;;;;;;3.60;2.60;;;;;;;21.82;45.54;97929.77;1698517;83;20940;-83
2021/08/21 08:29:56;;;;;;;3.12;2.20;;;;;;;21.89;46.46;97937.27;1700491;83;20997;-83
2021/08/21 08:32:23;;;;;;;3.80;2.08;;;;;;;21.96;42.95;97932.77;1704547;83;20962;-82
2021/08/21 08:34:50;;;;;;;2.85;2.20;;;;;;;22.05;42.65;97938.80;1693536;85;21040;-83
2021/08/21 08:37:16;;;;;;;2.87;2.20;;;;;;;22.14;44.37;97921.85;1697571;83;21377;-83
2021/08/21 08:39:43;;;;;;;2.67;2.37;;;;;;;22.24;44.26;97931.45;1693110;84;20974;-83
2021/08/21 08:42:13;;;;;;;3.42;2.02;;;;;;;22.32;42.37;97915.13;1698871;83;21034;-83
2021/08/21 08:44:46;;;;;;;3.65;2.70;;;;;;;22.41;44.35;97925.19;1705826;83;21030;-83
2021/08/21 08:47:17;;;;;;;4.05;2.40;;;;;;;22.51;44.61;97929.38;1692177;83;21025;-83
2021/08/21 08:49:47;;;;;;;3.02;2.20;;;;;;;22.55;45.76;97924.14;1703411;83;20989;-83
2021/08/21 08:52:18;;;;;;;2.70;2.35;;;;;;;22.60;46.01;97925.10;1692169;83;21013;-83
2021/08/21 08:54:45;;;;;;;3.77;2.30;;;;;;;22.58;43.01;97925.22;1691887;84;21005;-83
2021/08/21 08:57:42;;;;;;;3.17;2.33;;;;;;;22.62;43.50;97923.16;1701602;83;21092;-83
2021/08/21 09:00:14;;;;;;;3.65;2.58;;;;;;;22.68;44.86;97919.44;1691044;85;21509;-84
2021/08/21 09:02:45;;;;;;;5.80;3.42;;;;;;;22.72;42.71;97918.73;1680936;83;20994;-81
2021/08/21 09:05:15;;;;;;;3.80;2.55;;;;;;;22.79;44.25;97913.66;1692385;85;21041;-82
2021/08/21 09:07:52;;;;;;;3.22;2.72;;;;;;;22.84;44.40;97922.75;1697443;83;20932;-82
2021/08/21 09:10:28;;;;;;;3.80;3.42;;;;;;;22.91;44.28;97914.49;1696736;83;21028;-83
2021/08/21 09:13:17;;;;;;;4.10;2.42;;;;;;;22.91;44.81;97908.61;1687452;83;20974;-83
2021/08/21 09:15:51;;;;;;;4.35;2.87;;;;;;;22.97;44.77;97909.09;1692159;84;21458;-82
2021/08/21 09:18:27;;;;;;;3.12;2.35;;;;;;;22.98;44.56;97908.97;1716511;83;20959;-83
2021/08/21 09:20:58;;;;;;;2.77;2.42;;;;;;;23.00;44.13;97908.34;1691993;83;21052;-82
2021/08/21 09:23:38;;;;;;;7.95;4.35;;;;;;;23.05;44.69;97910.16;1691445;85;21005;-82
2021/08/21 09:26:14;;;;;;;7.87;6.30;;;;;;;23.07;44.59;97905.98;1692265;83;21036;-83
2021/08/21 09:28:44;;;;;;;4.95;2.80;;;;;;;23.11;43.79;97909.28;1693059;83;21005;-82
2021/08/21 09:31:17;;;;;;;3.52;2.40;;;;;;;23.23;43.29;97910.11;1697422;83;21021;-82
2021/08/21 09:34:00;;;;;;;2.85;2.50;;;;;;;23.37;43.95;97918.48;1722014;83;21035;-83
2021/08/21 09:36:31;;;;;;;3.30;2.70;;;;;;;23.60;43.65;97920.10;1716223;83;21502;-85
2021/08/21 09:39:05;;;;;;;3.60;2.60;;;;;;;23.89;43.86;97917.23;1690110;83;21023;-83
2021/08/21 09:41:55;;;;;;;4.22;2.92;;;;;;;24.14;43.85;97915.14;1690002;83;20999;-83
2021/08/21 09:44:42;;;;;;;4.15;2.65;;;;;;;24.30;43.09;97920.08;1690582;83;20997;-81
2021/08/21 09:47:29;;;;;;;3.65;2.85;;;;;;;24.41;43.21;97905.56;1696677;83;21007;-81
2021/08/21 09:50:17;;;;;;;4.30;2.95;;;;;;;24.56;43.15;97922.32;1700292;83;21045;-82
2021/08/21 09:52:46;;;;;;;3.85;2.50;;;;;;;24.69;43.04;97912.59;1692548;83;21005;-81
2021/08/21 09:55:19;;;;;;;3.75;2.70;;;;;;;24.85;41.58;97920.73;1691449;85;21001;-83
2021/08/21 09:58:04;;;;;;;3.12;2.30;;;;;;;24.87;40.87;97916.05;1701125;83;21112;-85
2021/08/21 10:00:35;;;;;;;3.75;2.70;;;;;;;24.80;38.53;97914.35;1705177;83;21020;-83
2021/08/21 10:03:04;;;;;;;4.78;2.95;;;;;;;24.93;39.93;97914.61;1720024;83;21401;-84
2021/08/21 10:05:33;;;;;;;3.70;2.98;;;;;;;25.03;41.18;97910.94;1717381;83;21064;-85
2021/08/21 10:08:04;;;;;;;4.12;2.85;;;;;;;25.14;41.62;97904.55;1694132;83;21018;-83
2021/08/21 10:10:35;;;;;;;4.10;3.00;;;;;;;25.17;38.08;97912.89;1691423;83;21089;-83
2021/08/21 10:13:09;;;;;;;4.45;2.62;;;;;;;25.16;39.92;97915.25;1697143;83;21032;-84
2021/08/21 10:15:40;;;;;;;3.90;2.87;;;;;;;25.15;40.20;97912.16;1693011;83;21051;-82
2021/08/21 10:18:09;;;;;;;3.30;2.67;;;;;;;25.14;39.89;97900.95;1714810;83;20915;-83
2021/08/21 10:20:38;;;;;;;2.85;2.55;;;;;;;25.25;40.06;97898.63;1705564;83;21079;-82
2021/08/21 10:23:14;;;;;;;4.00;2.67;;;;;;;25.40;40.17;97895.84;1663682;85;21023;-83
2021/08/21 10:25:49;;;;;;;5.00;2.90;;;;;;;25.56;40.34;97905.30;1660536;86;21041;-82
2021/08/21 10:28:17;;;;;;;7.42;6.70;;;;;;;25.67;39.21;97901.58;1659296;86;21041;-83
2021/08/21 10:30:52;;;;;;;5.20;3.10;;;;;;;25.62;37.50;97889.78;1671300;86;21027;-81
2021/08/21 10:33:19;;;;;;;3.33;3.02;;;;;;;25.60;37.11;97899.07;1681200;85;21032;-81
2021/08/21 10:35:55;;;;;;;4.78;3.50;;;;;;;25.47;36.84;97892.55;1674532;84;20958;-82
2021/08/21 10:38:39;;;;;;;3.47;3.08;;;;;;;25.47;37.31;97893.91;1693607;84;21378;-82
2021/08/21 10:41:20;;;;;;;3.02;2.72;;;;;;;25.33;36.01;97893.36;1693924;85;21398;-81
2021/08/21 10:43:54;;;;;;;3.35;2.70;;;;;;;25.47;36.52;97890.71;1693480;85;22102;-82
2021/08/21 10:46:33;;;;;;;;;;;;;;;26.30;37.86;97885.75;1695209;85;21060;-83
2021/08/21 10:49:03;;;;;;;3.00;2.70;;;;;;;27.66;33.76;97881.52;1693408;83;20111;-82
2021/08/21 10:51:46;;;;;;;4.62;3.35;;;;;;;29.10;30.99;97868.85;1693536;85;21059;-82
2021/08/21 10:54:30;;;;;;;2.80;2.55;;;;;;;30.23;31.84;97871.09;1693657;85;21008;-82
2021/08/21 10:57:01;;;;;;;3.40;3.10;;;;;;;31.32;30.21;97866.86;1693395;83;21064;-82
2021/08/21 10:59:41;;;;;;;4.10;3.27;;;;;;;32.01;27.44;97863.75;1689602;83;21019;-82
2021/08/21 11:02:37;;;;;;;4.15;3.17;;;;;;;32.65;25.42;97869.22;1678117;85;21453;-82
2021/08/21 11:05:04;;;;;;;5.25;3.30;;;;;;;33.42;26.36;97856.47;1691757;85;21064;-86
2021/08/21 11:07:40;;;;;;;3.20;2.90;;;;;;;33.91;23.81;97864.12;1693301;85;21060;-85
2021/08/21 11:10:30;;;;;;;3.98;3.02;;;;;;;33.83;24.07;97865.09;1693611;85;21445;-81
2021/08/21 11:12:56;;;;;;;3.45;3.08;;;;;;;34.04;23.41;97870.24;1675620;84;21030;-80
2021/08/21 11:15:32;;;;;;;4.08;3.25;;;;;;;33.90;22.04;97858.27;1649245;85;21012;-80
2021/08/21 11:17:55;;;;;;;3.00;2.70;;;;;;;33.38;23.28;97866.69;1646082;86;21055;-80
2021/08/21 11:20:32;;;;;;;3.37;2.67;;;;;;;33.50;22.30;97856.02;1694784;83;21014;-79
2021/08/21 11:23:10;;;;;;;3.15;2.85;;;;;;;34.02;23.90;97861.33;1709508;84;21069;-80
2021/08/21 11:25:43;;;;;;;3.00;2.72;;;;;;;34.89;23.68;97857.75;1709135;84;21367;-80
2021/08/21 11:28:23;;;;;;;;;;;;;;;35.25;22.27;97865.38;1721990;83;20998;-80
2021/08/21 11:31:04;;;;;;;3.98;2.87;;;;;;;34.32;22.29;97860.61;1714409;82;20124;-80
2021/08/21 11:33:32;;;;;;;3.58;3.20;;;;;;;34.28;23.83;97863.44;1709757;83;21088;-81
2021/08/21 11:36:00;;;;;;;3.35;3.05;;;;;;;35.20;22.85;97860.20;1709642;83;21099;-80
2021/08/21 11:38:33;;;;;;;4.28;3.20;;;;;;;35.33;21.81;97851.11;1721071;83;20995;-81
2021/08/21 11:41:07;;;;;;;5.15;3.35;;;;;;;35.97;22.36;97851.58;1715124;82;20993;-82
2021/08/21 11:43:34;;;;;;;3.30;3.00;;;;;;;35.56;20.39;97867.78;1686424;83;21058;-81
2021/08/21 11:46:03;;;;;;;3.05;2.70;;;;;;;34.66;21.74;97870.44;1710002;83;21021;-81